createdAt,value
2022-08-10T00:01:52.669Z,5.07
2022-08-10T00:04:24.133Z,4.80
2022-08-10T00:06:52.673Z,4.77
2022-08-10T00:09:19.535Z,4.10
2022-08-10T00:11:46.001Z,4.37
2022-08-10T00:14:12.427Z,4.20
2022-08-10T00:16:38.961Z,4.77
2022-08-10T00:19:05.478Z,4.37
2022-08-10T00:21:31.949Z,4.37
2022-08-10T00:23:58.408Z,4.27
2022-08-10T00:26:24.847Z,4.93
2022-08-10T00:28:52.698Z,4.20
2022-08-10T00:31:19.524Z,5.20
2022-08-10T00:33:45.977Z,4.70
2022-08-10T00:36:12.502Z,4.67
2022-08-10T00:38:38.928Z,4.93
2022-08-10T00:41:05.622Z,4.87
2022-08-10T00:43:32.312Z,3.77
2022-08-10T00:46:00.407Z,4.20
2022-08-10T00:48:29.114Z,4.60
2022-08-10T00:50:56.024Z,4.30
2022-08-10T00:53:22.528Z,4.73
2022-08-10T00:57:14.301Z,4.37
2022-08-10T00:58:38.340Z,5.10
2022-08-10T01:01:06.124Z,4.60
2022-08-10T01:04:36.656Z,4.60
2022-08-10T01:06:23.776Z,4.57
2022-08-10T01:08:57.602Z,4.77
2022-08-10T01:12:37.247Z,5.17
2022-08-10T01:14:37.493Z,5.10
2022-08-10T01:17:15.078Z,4.50
2022-08-10T01:19:53.360Z,5.10
2022-08-10T01:22:37.708Z,4.60
2022-08-10T01:25:28.924Z,4.77
2022-08-10T01:28:14.074Z,4.40
2022-08-10T01:30:42.991Z,4.03
2022-08-10T01:33:18.931Z,5.10
2022-08-10T01:36:12.987Z,4.97
2022-08-10T01:38:45.719Z,4.33
2022-08-10T01:41:26.588Z,5.17
2022-08-10T01:43:59.885Z,4.73
2022-08-10T01:46:32.081Z,4.47
2022-08-10T01:49:00.509Z,4.83
2022-08-10T01:51:32.668Z,4.67
2022-08-10T01:54:02.968Z,6.20
2022-08-10T01:56:33.801Z,5.30
2022-08-10T01:59:11.875Z,5.13
2022-08-10T02:01:42.484Z,4.80
2022-08-10T02:04:12.113Z,5.17
2022-08-10T02:06:45.234Z,4.80
2022-08-10T02:09:15.623Z,5.10
2022-08-10T02:12:06.647Z,5.20
2022-08-10T02:14:34.656Z,4.60
2022-08-10T02:17:08.031Z,5.23
2022-08-10T02:19:38.465Z,4.83
2022-08-10T02:22:15.417Z,5.43
2022-08-10T02:24:57.518Z,5.27
2022-08-10T02:27:26.829Z,5.50
2022-08-10T02:29:54.782Z,5.50
2022-08-10T02:32:36.154Z,5.70
2022-08-10T02:35:08.225Z,4.93
2022-08-10T02:37:43.465Z,5.90
2022-08-10T02:45:02.893Z,4.40
2022-08-10T02:45:18.929Z,5.23
2022-08-10T02:46:13.089Z,5.50
2022-08-10T02:48:45.088Z,5.27
2022-08-10T02:51:18.528Z,5.40
2022-08-10T02:53:54.956Z,5.60
2022-08-10T02:56:37.005Z,5.57
2022-08-10T02:59:21.853Z,5.67
2022-08-10T03:01:52.759Z,4.40
2022-08-10T03:04:55.345Z,5.60
2022-08-10T03:07:20.040Z,5.73
2022-08-10T03:10:08.416Z,5.17
2022-08-10T03:12:42.406Z,5.73
2022-08-10T03:15:11.089Z,5.17
2022-08-10T03:17:58.192Z,5.70
2022-08-10T03:20:37.446Z,5.07
2022-08-10T03:23:11.157Z,6.00
2022-08-10T03:25:37.923Z,5.53
2022-08-10T03:28:05.525Z,6.50
2022-08-10T03:30:34.385Z,7.00
2022-08-10T03:33:04.017Z,6.00
2022-08-10T03:35:30.761Z,5.67
2022-08-10T03:37:59.486Z,5.50
2022-08-10T03:40:35.860Z,5.40
2022-08-10T03:43:19.122Z,5.27
2022-08-10T03:45:55.817Z,5.53
2022-08-10T03:48:33.132Z,5.57
2022-08-10T03:51:13.472Z,6.70
2022-08-10T03:54:03.088Z,5.60
2022-08-10T03:56:31.859Z,5.10
2022-08-10T03:58:59.953Z,5.80
2022-08-10T04:02:43.270Z,5.80
2022-08-10T04:04:17.839Z,5.20
2022-08-10T04:06:47.298Z,6.10
2022-08-10T04:09:17.761Z,5.70
2022-08-10T04:11:44.614Z,6.23
2022-08-10T04:14:38.521Z,5.80
2022-08-10T04:16:57.728Z,5.80
2022-08-10T04:19:27.024Z,5.40
2022-08-10T04:22:07.178Z,5.90
2022-08-10T04:24:36.576Z,5.90
2022-08-10T04:27:03.426Z,6.03
2022-08-10T04:29:30.254Z,6.10
2022-08-10T04:31:56.874Z,5.30
2022-08-10T04:34:27.271Z,5.30
2022-08-10T04:36:59.573Z,5.50
2022-08-10T04:39:26.241Z,6.17
2022-08-10T04:41:52.917Z,5.73
2022-08-10T04:44:19.384Z,5.50
2022-08-10T04:46:56.079Z,5.90
2022-08-10T04:49:54.228Z,6.30
2022-08-10T04:52:10.612Z,6.27
2022-08-10T04:54:37.072Z,6.20
2022-08-10T04:57:03.893Z,6.17
2022-08-10T04:59:30.302Z,5.67
2022-08-10T05:02:22.435Z,5.50
2022-08-10T05:04:43.117Z,4.90
2022-08-10T05:07:16.709Z,5.73
2022-08-10T05:10:00.986Z,5.93
2022-08-10T05:12:36.397Z,5.87
2022-08-10T05:15:08.088Z,5.33
2022-08-10T05:17:36.066Z,5.77
2022-08-10T05:20:07.778Z,6.50
2022-08-10T05:22:40.741Z,6.03
2022-08-10T05:25:17.564Z,6.73
2022-08-10T05:27:44.954Z,5.60
2022-08-10T05:30:16.400Z,6.00
2022-08-10T05:32:56.361Z,5.67
2022-08-10T05:35:24.998Z,6.03
2022-08-10T05:38:12.263Z,5.60
2022-08-10T05:40:41.079Z,5.63
2022-08-10T05:43:14.803Z,5.37
2022-08-10T05:46:16.903Z,5.90
2022-08-10T05:48:58.148Z,5.60
2022-08-10T05:51:17.591Z,5.97
2022-08-10T05:54:01.790Z,6.70
2022-08-10T05:56:54.061Z,5.30
2022-08-10T06:00:10.923Z,6.40
2022-08-10T06:02:33.206Z,5.60
2022-08-10T06:04:56.994Z,5.87
2022-08-10T06:07:27.311Z,5.47
2022-08-10T06:09:59.317Z,5.83
2022-08-10T06:12:30.086Z,6.37
2022-08-10T06:15:05.982Z,6.40
2022-08-10T06:17:38.291Z,5.67
2022-08-10T06:20:05.706Z,6.17
2022-08-10T06:22:33.262Z,6.17
2022-08-10T06:25:37.765Z,5.40
2022-08-10T06:27:49.282Z,5.83
2022-08-10T06:30:20.036Z,5.17
2022-08-10T06:32:50.434Z,5.73
2022-08-10T06:35:18.120Z,5.70
2022-08-10T06:37:50.972Z,5.83
2022-08-10T06:40:19.797Z,5.40
2022-08-10T06:42:51.034Z,6.77
2022-08-10T06:45:22.386Z,4.80
2022-08-10T06:47:59.578Z,5.60
2022-08-10T06:50:58.121Z,5.03
2022-08-10T06:53:54.019Z,5.33
2022-08-10T06:56:37.668Z,5.43
2022-08-10T06:59:26.022Z,5.27
2022-08-10T07:02:03.599Z,5.50
2022-08-10T07:04:33.735Z,5.13
2022-08-10T07:07:05.512Z,5.20
2022-08-10T07:09:36.114Z,5.43
2022-08-10T07:12:08.211Z,6.10
2022-08-10T07:14:43.464Z,5.60
2022-08-10T07:17:15.427Z,5.20
2022-08-10T07:19:50.354Z,5.37
2022-08-10T07:23:01.206Z,4.53
2022-08-10T07:25:12.014Z,4.83
2022-08-10T07:27:58.553Z,5.00
2022-08-10T07:30:28.794Z,5.47
2022-08-10T07:32:56.595Z,5.70
2022-08-10T07:35:26.365Z,4.60
2022-08-10T07:37:54.823Z,4.87
2022-08-10T07:40:22.288Z,4.93
2022-08-10T07:42:53.691Z,4.70
2022-08-10T07:45:20.448Z,4.33
2022-08-10T07:47:55.068Z,4.60
2022-08-10T07:50:24.421Z,4.77
2022-08-10T07:52:53.395Z,4.80
2022-08-10T07:56:02.059Z,5.10
2022-08-10T07:58:09.056Z,5.00
2022-08-10T08:00:37.113Z,4.53
2022-08-10T08:03:07.163Z,4.53
2022-08-10T08:05:57.264Z,4.70
2022-08-10T08:08:22.534Z,4.00
2022-08-10T08:10:50.507Z,4.70
2022-08-10T08:13:20.447Z,4.80
2022-08-10T08:16:20.899Z,4.80
2022-08-10T08:18:37.044Z,4.60
2022-08-10T08:24:02.356Z,4.37
2022-08-10T08:24:05.778Z,4.27
2022-08-10T08:26:40.969Z,6.00
2022-08-10T08:29:10.732Z,4.40
2022-08-10T08:31:59.150Z,4.20
2022-08-10T08:34:25.396Z,5.00
2022-08-10T08:36:56.083Z,4.37
2022-08-10T08:39:25.743Z,4.30
2022-08-10T08:42:03.489Z,4.20
2022-08-10T08:44:50.142Z,4.70
2022-08-10T08:48:04.088Z,4.47
2022-08-10T08:50:47.178Z,6.03
2022-08-10T08:54:01.667Z,4.30
2022-08-10T08:56:34.458Z,3.67
2022-08-10T08:59:11.349Z,4.00
2022-08-10T09:02:21.021Z,4.40
2022-08-10T09:05:19.336Z,3.70
2022-08-10T09:08:17.578Z,3.90
2022-08-10T09:11:00.534Z,4.73
2022-08-10T09:13:48.268Z,4.00
2022-08-10T09:16:36.344Z,4.27
2022-08-10T09:19:11.758Z,4.23
2022-08-10T09:22:17.514Z,3.83
2022-08-10T09:24:52.591Z,4.27
2022-08-10T09:27:23.728Z,3.53
2022-08-10T09:30:06.235Z,3.93
2022-08-10T09:36:14.298Z,3.73
2022-08-10T09:36:21.928Z,2.90
2022-08-10T09:38:34.755Z,3.10
2022-08-10T09:41:19.809Z,3.20
2022-08-10T09:43:50.889Z,2.77
2022-08-10T09:46:39.373Z,2.40
2022-08-10T09:49:12.130Z,2.80
2022-08-10T09:51:59.950Z,3.10
2022-08-10T09:54:54.181Z,2.87
2022-08-10T09:57:44.576Z,2.80
2022-08-10T10:00:16.255Z,3.00
2022-08-10T10:03:03.079Z,4.00
2022-08-10T10:05:51.190Z,4.23
2022-08-10T10:08:22.033Z,3.10
2022-08-10T10:11:00.089Z,2.40
2022-08-10T10:14:03.801Z,2.97
2022-08-10T10:17:09.153Z,2.60
2022-08-10T10:19:48.476Z,2.67
2022-08-10T10:22:25.979Z,2.40
2022-08-10T10:25:19.562Z,2.53
2022-08-10T10:27:59.939Z,2.57
2022-08-10T10:30:36.994Z,2.80
2022-08-10T10:33:14.415Z,2.20
2022-08-10T10:35:56.994Z,2.60
2022-08-10T10:38:28.580Z,3.30
2022-08-10T10:41:16.082Z,3.50
2022-08-10T10:43:56.112Z,1.90
2022-08-10T10:46:51.958Z,4.60
2022-08-10T10:49:24.605Z,3.30
2022-08-10T10:52:04.717Z,2.97
2022-08-10T10:54:53.381Z,2.40
2022-08-10T10:58:00.065Z,2.50
2022-08-10T11:00:18.316Z,2.57
2022-08-10T11:03:06.946Z,3.13
2022-08-10T11:05:33.363Z,4.70
2022-08-10T11:08:15.570Z,2.73
2022-08-10T11:11:02.947Z,2.50
2022-08-10T11:14:27.174Z,2.50
2022-08-10T11:16:43.337Z,1.97
2022-08-10T11:20:00.346Z,2.97
2022-08-10T11:22:49.679Z,2.17
2022-08-10T11:25:36.289Z,2.50
2022-08-10T11:28:16.554Z,2.63
2022-08-10T11:30:56.132Z,2.30
2022-08-10T11:36:36.867Z,2.23
2022-08-10T11:39:16.105Z,2.57
2022-08-10T11:42:10.196Z,2.53
2022-08-10T11:44:31.610Z,2.30
2022-08-10T11:47:15.261Z,2.63
2022-08-10T11:49:55.966Z,2.30
2022-08-10T11:52:59.723Z,2.40
2022-08-10T11:55:30.585Z,2.60
2022-08-10T11:58:25.540Z,2.50
2022-08-10T12:00:55.941Z,2.40
2022-08-10T12:03:24.166Z,2.70
2022-08-10T12:05:55.410Z,2.10
2022-08-10T12:10:03.672Z,2.60
2022-08-10T12:11:22.516Z,2.37
2022-08-10T12:14:22.790Z,2.10
2022-08-10T12:16:59.796Z,2.50
2022-08-10T12:19:58.761Z,2.63
2022-08-10T12:22:33.106Z,2.23
2022-08-10T12:25:03.699Z,2.33
2022-08-10T12:27:40.055Z,2.07
2022-08-10T12:30:08.809Z,2.23
2022-08-10T12:33:02.068Z,2.53
2022-08-10T12:35:56.108Z,2.23
2022-08-10T12:38:44.691Z,2.17
2022-08-10T12:41:44.254Z,2.50
2022-08-10T12:44:42.331Z,2.27
2022-08-10T12:47:14.883Z,2.40
2022-08-10T12:50:23.925Z,2.13
2022-08-10T12:53:27.483Z,2.27
2022-08-10T12:55:55.422Z,2.70
2022-08-10T12:58:58.110Z,2.80
2022-08-10T13:01:18.588Z,2.23
2022-08-10T13:04:22.883Z,2.20
2022-08-10T13:06:43.456Z,2.00
2022-08-10T13:09:10.004Z,2.00
2022-08-10T13:12:36.106Z,2.43
2022-08-10T13:14:57.735Z,2.40
2022-08-10T13:17:38.849Z,2.47
2022-08-10T13:20:16.138Z,2.57
2022-08-10T13:22:43.638Z,1.83
2022-08-10T13:25:11.334Z,2.30
2022-08-10T13:28:00.736Z,2.03
2022-08-10T13:30:37.899Z,2.00
2022-08-10T13:33:07.204Z,1.90
2022-08-10T13:35:36.112Z,2.03
2022-08-10T13:38:04.776Z,1.90
2022-08-10T13:40:32.780Z,2.60
2022-08-10T13:43:02.472Z,2.00
2022-08-10T13:45:30.323Z,2.67
2022-08-10T13:48:16.830Z,2.20
2022-08-10T13:50:46.203Z,2.13
2022-08-10T13:53:15.690Z,2.27
2022-08-10T13:55:55.426Z,2.30
2022-08-10T13:58:32.172Z,2.13
2022-08-10T14:01:09.275Z,2.27
2022-08-10T14:03:39.732Z,2.17
2022-08-10T14:06:10.374Z,1.97
2022-08-10T14:08:38.101Z,2.30
2022-08-10T14:11:12.358Z,2.53
2022-08-10T14:13:50.605Z,2.30
2022-08-10T14:16:18.576Z,2.80
2022-08-10T14:18:47.324Z,2.40
2022-08-10T14:21:14.966Z,2.67
2022-08-10T14:23:52.437Z,3.17
2022-08-10T14:26:30.947Z,2.60
2022-08-10T14:29:04.895Z,2.43
2022-08-10T14:31:34.162Z,2.27
2022-08-10T14:34:03.664Z,2.53
2022-08-10T14:36:44.249Z,2.43
2022-08-10T14:39:22.273Z,2.40
2022-08-10T14:42:02.765Z,2.50
2022-08-10T14:44:45.043Z,2.40
2022-08-10T14:47:51.527Z,3.00
2022-08-10T14:50:03.322Z,2.13
2022-08-10T14:52:38.458Z,2.70
2022-08-10T14:55:06.408Z,2.53
2022-08-10T14:58:19.292Z,2.13
2022-08-10T15:00:42.917Z,2.50
2022-08-10T15:04:01.768Z,2.60
2022-08-10T15:06:06.969Z,3.00
2022-08-10T15:08:36.883Z,2.80
2022-08-10T15:11:04.465Z,2.83
2022-08-10T15:13:34.569Z,2.80
2022-08-10T15:16:13.680Z,2.50
2022-08-10T15:18:57.650Z,2.60
2022-08-10T15:21:35.676Z,2.57
2022-08-10T15:24:15.977Z,2.50
2022-08-10T15:26:57.775Z,2.90
2022-08-10T15:29:26.483Z,2.83
2022-08-10T15:32:16.815Z,2.90
2022-08-10T15:35:04.336Z,2.70
2022-08-10T15:37:47.232Z,2.97
2022-08-10T15:40:26.700Z,3.33
2022-08-10T15:43:24.504Z,3.03
2022-08-10T15:46:09.719Z,2.50
2022-08-10T15:48:47.989Z,2.87
2022-08-10T15:51:33.808Z,2.60
2022-08-10T15:54:17.015Z,2.90
2022-08-10T15:56:58.925Z,2.57
2022-08-10T15:59:43.270Z,2.40
2022-08-10T16:02:17.198Z,2.47
2022-08-10T16:04:52.212Z,2.60
2022-08-10T16:07:49.239Z,2.97
2022-08-10T16:10:28.290Z,2.40
2022-08-10T16:13:50.059Z,3.17
2022-08-10T16:15:59.937Z,2.90
2022-08-10T16:18:28.289Z,3.00
2022-08-10T16:20:58.918Z,2.70
2022-08-10T16:23:29.966Z,2.50
2022-08-10T16:26:05.089Z,2.37
2022-08-10T16:28:59.615Z,2.60
2022-08-10T16:31:29.144Z,3.00
2022-08-10T16:33:59.732Z,3.00
2022-08-10T16:36:40.237Z,3.20
2022-08-10T16:39:08.165Z,2.73
2022-08-10T16:42:03.638Z,2.60
2022-08-10T16:44:39.096Z,2.50
2022-08-10T16:47:07.484Z,2.53
2022-08-10T16:49:39.988Z,2.10
2022-08-10T16:52:07.854Z,2.53
2022-08-10T16:54:36.784Z,2.50
2022-08-10T16:57:05.624Z,3.03
2022-08-10T16:59:38.253Z,2.50
2022-08-10T17:02:06.603Z,2.57
2022-08-10T17:04:36.330Z,2.83
2022-08-10T17:07:14.345Z,2.57
2022-08-10T17:09:47.106Z,2.33
2022-08-10T17:12:16.816Z,2.80
2022-08-10T17:14:44.169Z,2.87
2022-08-10T17:17:31.012Z,2.87
2022-08-10T17:20:30.450Z,2.70
2022-08-10T17:22:54.796Z,2.60
2022-08-10T17:25:25.537Z,2.53
2022-08-10T17:28:13.272Z,2.30
2022-08-10T17:31:23.865Z,2.90
2022-08-10T17:34:02.179Z,2.83
2022-08-10T17:36:33.394Z,2.73
2022-08-10T17:39:00.621Z,2.70
2022-08-10T17:41:31.245Z,3.30
2022-08-10T17:44:03.539Z,2.90
2022-08-10T17:46:38.564Z,2.80
2022-08-10T17:49:08.227Z,2.87
2022-08-10T17:51:36.870Z,2.90
2022-08-10T17:54:08.892Z,2.43
2022-08-10T17:56:37.736Z,2.93
2022-08-10T17:59:17.548Z,2.63
2022-08-10T18:01:58.847Z,2.60
2022-08-10T18:04:35.522Z,2.57
2022-08-10T18:07:09.878Z,2.90
2022-08-10T18:09:42.923Z,2.97
2022-08-10T18:12:25.788Z,2.80
2022-08-10T18:15:04.438Z,3.03
2022-08-10T18:17:38.161Z,3.23
2022-08-10T18:20:07.817Z,2.53
2022-08-10T18:22:42.908Z,2.30
2022-08-10T18:25:17.232Z,2.63
2022-08-10T18:28:01.604Z,3.23
2022-08-10T18:30:36.535Z,2.37
2022-08-10T18:33:09.167Z,2.60
2022-08-10T18:35:37.271Z,2.50
2022-08-10T18:38:04.851Z,3.37
2022-08-10T18:40:36.381Z,3.07
2022-08-10T18:44:04.583Z,2.40
2022-08-10T18:45:56.531Z,2.70
2022-08-10T18:48:27.821Z,3.00
2022-08-10T18:50:57.441Z,3.10
2022-08-10T18:53:35.844Z,3.00
2022-08-10T18:56:22.256Z,2.93
2022-08-10T18:59:06.286Z,2.73
2022-08-10T19:01:35.514Z,2.63
2022-08-10T19:04:39.746Z,2.70
2022-08-10T19:07:44.953Z,2.60
2022-08-10T19:10:33.832Z,2.83
2022-08-10T19:13:28.949Z,3.30
2022-08-10T19:16:16.946Z,3.00
2022-08-10T19:19:21.782Z,2.50
2022-08-10T19:22:14.929Z,2.40
2022-08-10T19:24:44.862Z,2.50
2022-08-10T19:27:34.553Z,2.77
2022-08-10T19:30:13.361Z,2.90
2022-08-10T19:33:14.256Z,3.17
2022-08-10T19:36:05.394Z,2.83
2022-08-10T19:39:03.414Z,2.80
2022-08-10T19:41:41.916Z,3.20
2022-08-10T19:44:21.673Z,3.10
2022-08-10T19:47:05.539Z,2.10
2022-08-10T19:49:39.999Z,2.50
2022-08-10T19:52:41.496Z,2.40
2022-08-10T19:55:30.693Z,2.87
2022-08-10T19:58:22.253Z,3.13
2022-08-10T20:01:02.193Z,3.30
2022-08-10T20:03:41.545Z,2.67
2022-08-10T20:06:18.704Z,2.83
2022-08-10T20:09:29.274Z,2.77
2022-08-10T20:12:08.271Z,2.83
2022-08-10T20:14:56.621Z,2.67
2022-08-10T20:17:51.257Z,3.07
2022-08-10T20:20:31.024Z,2.77
2022-08-10T20:23:16.537Z,2.80
2022-08-10T20:25:56.551Z,2.97
2022-08-10T20:28:35.788Z,3.10
2022-08-10T20:31:11.597Z,3.27
2022-08-10T20:34:01.657Z,2.83
2022-08-10T20:36:33.623Z,3.30
2022-08-10T20:39:13.320Z,2.70
2022-08-10T20:41:59.670Z,3.20
2022-08-10T20:44:47.017Z,2.87
2022-08-10T20:47:54.854Z,2.93
2022-08-10T20:50:25.132Z,2.70
2022-08-10T20:52:52.935Z,2.60
2022-08-10T20:55:22.268Z,2.80
2022-08-10T20:58:18.962Z,3.03
2022-08-10T21:00:52.513Z,3.10
2022-08-10T21:03:33.800Z,2.80
2022-08-10T21:06:14.338Z,2.43
2022-08-10T21:09:28.770Z,3.30
2022-08-10T21:12:06.944Z,2.73
2022-08-10T21:14:57.973Z,2.60
2022-08-10T21:17:31.804Z,2.70
2022-08-10T21:20:14.353Z,2.73
2022-08-10T21:22:48.313Z,2.90
2022-08-10T21:25:26.113Z,2.50
2022-08-10T21:28:25.151Z,3.00
2022-08-10T21:31:16.119Z,3.03
2022-08-10T21:34:12.446Z,2.53
2022-08-10T21:36:56.237Z,2.80
2022-08-10T21:39:44.112Z,2.40
2022-08-10T21:42:47.121Z,3.00
2022-08-10T21:45:59.173Z,2.57
2022-08-10T21:48:57.204Z,2.93
2022-08-10T21:52:04.217Z,2.80
2022-08-10T21:55:03.291Z,2.73
2022-08-10T21:58:09.366Z,3.10
2022-08-10T22:01:01.507Z,2.80
2022-08-10T22:03:47.171Z,3.47
2022-08-10T22:06:34.098Z,2.97
2022-08-10T22:09:26.430Z,3.40
2022-08-10T22:12:24.650Z,3.20
2022-08-10T22:16:05.401Z,2.70
2022-08-10T22:18:58.718Z,3.10
2022-08-10T22:22:26.904Z,2.50
2022-08-10T22:25:28.932Z,2.80
2022-08-10T22:28:17.549Z,2.63
2022-08-10T22:31:30.768Z,2.97
2022-08-10T22:34:38.834Z,3.00
2022-08-10T22:37:45.848Z,2.60
2022-08-10T22:40:42.301Z,3.10
2022-08-10T22:43:51.173Z,2.53
2022-08-10T22:46:40.519Z,2.63
2022-08-10T22:49:07.965Z,2.87
2022-08-10T22:51:43.525Z,2.90
2022-08-10T22:54:34.900Z,2.77
2022-08-10T22:57:21.162Z,3.10
2022-08-10T22:59:49.398Z,3.33
2022-08-10T23:02:26.268Z,2.70
2022-08-10T23:04:58.177Z,2.77
2022-08-10T23:07:28.443Z,2.70
2022-08-10T23:10:07.232Z,2.90
2022-08-10T23:12:47.441Z,2.93
2022-08-10T23:15:46.043Z,2.50
2022-08-10T23:18:36.656Z,2.60
2022-08-10T23:21:05.000Z,3.30
2022-08-10T23:23:38.322Z,2.50
2022-08-10T23:26:06.235Z,3.23
2022-08-10T23:28:38.780Z,3.10
2022-08-10T23:31:59.237Z,3.40
2022-08-10T23:34:13.514Z,2.80
2022-08-10T23:36:41.225Z,2.97
2022-08-10T23:39:26.578Z,3.07
2022-08-10T23:41:59.728Z,3.33
2022-08-10T23:44:51.724Z,3.07
2022-08-10T23:47:21.189Z,3.10
2022-08-10T23:49:54.765Z,2.63
2022-08-10T23:52:27.532Z,3.23
2022-08-10T23:55:00.864Z,3.20
2022-08-10T23:57:29.495Z,3.10
2022-08-10T23:59:59.857Z,3.70
